createdAt,value
2022-10-31T00:01:39.433Z,2.97
2022-10-31T00:04:25.034Z,5.05
2022-10-31T00:07:10.567Z,3.78
2022-10-31T00:09:55.898Z,4.13
2022-10-31T00:12:41.464Z,3.63
2022-10-31T00:15:26.619Z,3.80
2022-10-31T00:18:12.333Z,3.40
2022-10-31T00:21:02.043Z,3.95
2022-10-31T00:23:47.366Z,3.72
2022-10-31T00:26:33.031Z,3.88
2022-10-31T00:29:18.436Z,4.43
2022-10-31T00:32:03.860Z,3.28
2022-10-31T00:34:49.245Z,3.80
2022-10-31T00:37:34.867Z,3.95
2022-10-31T00:40:20.132Z,4.45
2022-10-31T00:43:05.871Z,3.85
2022-10-31T00:45:51.585Z,4.18
2022-10-31T00:48:36.954Z,3.58
2022-10-31T00:51:22.100Z,3.90
2022-10-31T00:54:07.944Z,4.00
2022-10-31T00:56:53.716Z,3.97
2022-10-31T00:59:39.212Z,4.38
2022-10-31T01:02:24.753Z,3.95
2022-10-31T01:05:10.119Z,4.20
2022-10-31T01:07:56.432Z,3.95
2022-10-31T01:10:41.900Z,4.30
2022-10-31T01:13:28.102Z,3.92
2022-10-31T01:16:19.442Z,3.85
2022-10-31T01:19:04.498Z,4.32
2022-10-31T01:21:49.897Z,2.83
2022-10-31T01:24:35.374Z,4.03
2022-10-31T01:27:21.404Z,4.47
2022-10-31T01:30:07.258Z,3.45
2022-10-31T01:32:53.124Z,3.47
2022-10-31T01:35:38.477Z,3.35
2022-10-31T01:38:24.337Z,5.00
2022-10-31T01:41:12.271Z,3.80
2022-10-31T01:44:02.860Z,3.75
2022-10-31T01:46:53.669Z,3.28
2022-10-31T01:49:44.394Z,4.30
2022-10-31T01:52:38.991Z,4.38
2022-10-31T01:55:38.671Z,3.47
2022-10-31T01:58:27.301Z,4.15
2022-10-31T02:01:15.781Z,4.53
2022-10-31T02:04:01.389Z,4.90
2022-10-31T02:06:52.072Z,5.07
2022-10-31T02:09:38.956Z,4.22
2022-10-31T02:12:24.606Z,4.40
2022-10-31T02:15:15.826Z,5.30
2022-10-31T02:18:02.672Z,4.43
2022-10-31T02:21:12.851Z,4.75
2022-10-31T02:24:22.730Z,4.78
2022-10-31T02:27:35.435Z,5.00
2022-10-31T02:33:46.814Z,4.57
2022-10-31T02:36:58.295Z,4.40
2022-10-31T02:40:33.267Z,4.68
2022-10-31T02:44:02.447Z,4.93
2022-10-31T02:46:53.604Z,3.72
2022-10-31T02:49:49.174Z,4.68
2022-10-31T02:52:35.998Z,4.85
2022-10-31T02:55:26.052Z,6.00
2022-10-31T02:58:20.725Z,5.13
2022-10-31T03:01:21.256Z,4.68
2022-10-31T03:04:06.524Z,4.25
2022-10-31T03:07:17.045Z,5.10
2022-10-31T03:10:28.940Z,5.72
2022-10-31T03:14:13.563Z,5.20
2022-10-31T03:17:05.916Z,4.72
2022-10-31T03:19:56.322Z,4.80
2022-10-31T03:22:44.001Z,5.18
2022-10-31T03:25:31.676Z,5.57
2022-10-31T03:28:24.629Z,4.95
2022-10-31T03:31:11.736Z,4.97
2022-10-31T03:34:00.814Z,5.97
2022-10-31T03:36:56.137Z,5.45
2022-10-31T03:39:43.989Z,5.82
2022-10-31T03:42:33.405Z,5.43
2022-10-31T03:45:24.825Z,5.97
2022-10-31T03:48:10.528Z,5.78
2022-10-31T03:51:16.146Z,6.32
2022-10-31T03:54:20.538Z,6.90
2022-10-31T03:57:40.902Z,7.65
2022-10-31T04:00:27.255Z,7.18
2022-10-31T04:03:35.518Z,6.80
2022-10-31T04:06:23.820Z,7.65
2022-10-31T04:09:10.472Z,8.55
2022-10-31T04:12:00.434Z,9.63
2022-10-31T04:15:07.965Z,10.50
2022-10-31T04:17:56.656Z,10.43
2022-10-31T04:20:42.751Z,9.13
2022-10-31T04:23:30.103Z,8.82
2022-10-31T04:26:15.793Z,10.90
2022-10-31T04:29:03.726Z,9.57
2022-10-31T04:31:49.622Z,10.98
2022-10-31T04:34:36.343Z,10.45
2022-10-31T04:37:22.241Z,9.85
2022-10-31T04:40:08.116Z,9.77
2022-10-31T04:43:12.549Z,9.77
2022-10-31T04:45:58.599Z,10.43
2022-10-31T04:48:44.463Z,10.98
2022-10-31T04:51:30.535Z,11.80
2022-10-31T04:54:16.087Z,11.57
2022-10-31T04:57:33.459Z,12.60
2022-10-31T05:00:22.918Z,11.75
2022-10-31T05:03:09.202Z,11.73
2022-10-31T05:05:54.672Z,12.15
2022-10-31T05:08:40.077Z,11.05
2022-10-31T05:11:26.445Z,12.55
2022-10-31T05:14:14.880Z,12.02
2022-10-31T05:17:23.178Z,12.05
2022-10-31T05:20:29.855Z,12.63
2022-10-31T05:23:48.627Z,14.82
2022-10-31T05:26:35.084Z,14.55
2022-10-31T05:29:20.618Z,15.35
2022-10-31T05:32:07.177Z,15.35
2022-10-31T05:35:14.912Z,16.35
2022-10-31T05:38:20.174Z,16.77
2022-10-31T05:41:06.805Z,15.00
2022-10-31T05:43:52.903Z,14.63
2022-10-31T05:46:42.411Z,14.07
2022-10-31T05:49:57.177Z,13.13
2022-10-31T05:53:04.800Z,13.35
2022-10-31T05:55:55.047Z,17.38
2022-10-31T05:58:41.653Z,16.02
2022-10-31T06:01:27.200Z,17.35
2022-10-31T06:04:12.605Z,13.75
2022-10-31T06:06:58.545Z,14.95
2022-10-31T06:09:44.228Z,13.40
2022-10-31T06:12:30.889Z,14.02
2022-10-31T06:15:36.241Z,14.13
2022-10-31T06:18:22.075Z,13.80
2022-10-31T06:21:11.546Z,13.85
2022-10-31T06:23:59.157Z,12.73
2022-10-31T06:27:16.726Z,15.35
2022-10-31T06:30:02.463Z,15.20
2022-10-31T06:32:50.913Z,14.05
2022-10-31T06:35:38.559Z,13.45
2022-10-31T06:38:24.020Z,14.25
2022-10-31T06:41:10.742Z,15.27
2022-10-31T06:44:08.918Z,15.00
2022-10-31T06:47:14.602Z,15.55
2022-10-31T06:50:00.154Z,16.63
2022-10-31T06:52:51.980Z,17.33
2022-10-31T06:55:38.914Z,19.52
2022-10-31T06:58:24.952Z,16.65
2022-10-31T07:01:13.319Z,17.75
2022-10-31T07:03:58.726Z,18.23
2022-10-31T07:06:48.147Z,17.33
2022-10-31T07:09:37.934Z,16.88
2022-10-31T07:12:24.228Z,19.10
2022-10-31T07:18:03.744Z,19.00
2022-10-31T07:20:49.746Z,16.73
2022-10-31T07:23:36.924Z,17.27
2022-10-31T07:26:52.013Z,17.52
2022-10-31T07:29:37.265Z,18.98
2022-10-31T07:32:23.345Z,19.33
2022-10-31T07:35:21.371Z,18.25
2022-10-31T07:38:13.782Z,17.15
2022-10-31T07:40:59.164Z,16.42
2022-10-31T07:43:47.315Z,17.45
2022-10-31T07:46:35.718Z,17.40
2022-10-31T07:49:40.186Z,17.70
2022-10-31T07:52:44.713Z,16.73
2022-10-31T07:56:02.473Z,16.33
2022-10-31T07:58:48.982Z,15.70
2022-10-31T08:01:34.584Z,15.23
2022-10-31T08:04:53.210Z,19.02
2022-10-31T08:08:00.901Z,20.40
2022-10-31T08:10:46.743Z,17.52
2022-10-31T08:13:32.444Z,18.80
2022-10-31T08:16:17.641Z,19.02
2022-10-31T08:19:16.217Z,18.15
2022-10-31T08:22:02.483Z,16.77
2022-10-31T08:24:48.372Z,18.20
2022-10-31T08:27:33.817Z,16.23
2022-10-31T08:30:22.457Z,15.75
2022-10-31T08:33:28.112Z,17.75
2022-10-31T08:36:34.177Z,16.08
2022-10-31T08:39:32.515Z,18.23
2022-10-31T08:42:18.557Z,18.42
2022-10-31T08:45:04.264Z,20.15
2022-10-31T08:47:52.693Z,21.33
2022-10-31T08:50:38.410Z,22.23
2022-10-31T08:53:23.823Z,21.33
2022-10-31T08:56:20.781Z,22.60
2022-10-31T08:59:06.231Z,21.05
2022-10-31T09:02:10.521Z,22.90
2022-10-31T09:04:56.611Z,22.25
2022-10-31T09:07:42.158Z,22.30
2022-10-31T09:10:28.964Z,16.70
2022-10-31T09:13:20.484Z,19.27
2022-10-31T09:16:35.182Z,19.33
2022-10-31T09:19:20.231Z,18.80
2022-10-31T09:22:06.474Z,15.88
2022-10-31T09:24:51.813Z,17.58
2022-10-31T09:27:37.503Z,20.33
2022-10-31T09:30:30.137Z,20.10
2022-10-31T09:33:16.372Z,17.60
2022-10-31T09:36:08.513Z,18.63
2022-10-31T09:38:59.768Z,20.13
2022-10-31T09:42:24.533Z,16.95
2022-10-31T09:45:37.955Z,17.75
2022-10-31T09:49:01.879Z,16.45
2022-10-31T09:52:39.590Z,14.45
2022-10-31T09:55:41.094Z,16.23
2022-10-31T09:58:29.065Z,13.95
2022-10-31T10:01:45.244Z,14.48
2022-10-31T10:04:37.243Z,16.30
2022-10-31T10:07:49.252Z,15.88
2022-10-31T10:11:00.904Z,14.77
2022-10-31T10:14:21.730Z,17.17
2022-10-31T10:17:32.949Z,17.42
2022-10-31T10:20:32.805Z,16.10
2022-10-31T10:23:51.635Z,14.45
2022-10-31T10:26:46.553Z,14.40
2022-10-31T10:29:43.597Z,16.25
2022-10-31T10:32:34.787Z,15.68
2022-10-31T10:35:53.498Z,17.50
2022-10-31T10:38:50.956Z,16.40
2022-10-31T10:41:46.548Z,16.60
2022-10-31T10:44:50.434Z,15.88
2022-10-31T10:47:44.923Z,17.08
2022-10-31T10:50:37.990Z,16.08
2022-10-31T10:54:04.175Z,15.43
2022-10-31T10:57:29.854Z,16.35
2022-10-31T11:00:42.466Z,15.75
2022-10-31T11:03:28.458Z,12.32
2022-10-31T11:06:22.919Z,12.75
2022-10-31T11:09:11.777Z,10.07
2022-10-31T11:11:58.743Z,10.80
2022-10-31T11:14:53.563Z,10.60
2022-10-31T11:17:41.612Z,9.75
2022-10-31T11:20:32.680Z,10.40
2022-10-31T11:23:20.215Z,7.85
2022-10-31T11:26:07.088Z,6.75
2022-10-31T11:28:59.846Z,8.63
2022-10-31T11:31:47.073Z,7.63
2022-10-31T11:34:36.641Z,8.85
2022-10-31T11:37:26.158Z,8.55
2022-10-31T11:40:21.366Z,8.07
2022-10-31T11:43:06.662Z,9.63
2022-10-31T11:45:52.526Z,8.43
2022-10-31T11:48:38.395Z,7.13
2022-10-31T11:51:27.915Z,10.18
2022-10-31T11:54:27.688Z,10.93
2022-10-31T11:57:25.598Z,8.70
2022-10-31T12:00:30.176Z,9.70
2022-10-31T12:03:24.960Z,8.45
2022-10-31T12:06:33.243Z,10.30
2022-10-31T12:09:27.547Z,10.38
2022-10-31T12:12:35.038Z,7.82
2022-10-31T12:15:28.821Z,7.65
2022-10-31T12:18:32.642Z,12.25
2022-10-31T12:21:47.080Z,11.52
2022-10-31T12:24:53.695Z,12.63
2022-10-31T12:27:47.553Z,15.00
2022-10-31T12:31:10.163Z,16.23
2022-10-31T12:34:29.842Z,21.52
2022-10-31T12:37:25.470Z,16.48
2022-10-31T12:40:49.874Z,15.52
2022-10-31T12:43:49.298Z,13.30
2022-10-31T12:46:43.655Z,11.95
2022-10-31T12:50:09.735Z,13.13
2022-10-31T12:53:14.147Z,17.52
2022-10-31T12:56:10.152Z,15.88
2022-10-31T12:59:02.640Z,15.65
2022-10-31T13:02:04.888Z,16.83
2022-10-31T13:04:56.866Z,16.40
2022-10-31T13:10:35.719Z,17.83
2022-10-31T13:13:33.830Z,19.17
2022-10-31T13:16:27.791Z,17.35
2022-10-31T13:19:41.173Z,16.67
2022-10-31T13:22:32.756Z,14.95
2022-10-31T13:25:24.180Z,17.48
2022-10-31T13:28:38.726Z,15.13
2022-10-31T13:31:26.076Z,17.35
2022-10-31T13:34:22.356Z,14.63
2022-10-31T13:37:41.738Z,16.70
2022-10-31T13:40:46.256Z,14.48
2022-10-31T13:43:56.181Z,14.65
2022-10-31T13:49:33.669Z,18.55
2022-10-31T13:52:27.014Z,17.33
2022-10-31T13:55:42.667Z,16.40
2022-10-31T13:58:30.584Z,18.52
2022-10-31T14:01:21.648Z,15.30
2022-10-31T14:04:25.171Z,15.43
2022-10-31T14:07:17.880Z,22.88
2022-10-31T14:10:07.271Z,19.83
2022-10-31T14:12:53.140Z,25.45
2022-10-31T14:15:40.779Z,25.85
2022-10-31T14:18:35.477Z,24.13
2022-10-31T14:21:23.995Z,23.25
2022-10-31T14:24:24.358Z,23.27
2022-10-31T14:27:24.692Z,19.73
2022-10-31T14:30:18.374Z,21.02
2022-10-31T14:33:16.047Z,23.90
2022-10-31T14:36:11.401Z,20.45
2022-10-31T14:39:09.257Z,18.58
2022-10-31T14:42:34.081Z,20.63
2022-10-31T14:45:26.536Z,20.50
2022-10-31T14:48:24.270Z,26.77
2022-10-31T14:51:15.940Z,24.25
2022-10-31T14:54:01.912Z,24.48
2022-10-31T14:57:05.025Z,21.35
2022-10-31T14:59:57.861Z,23.13
2022-10-31T15:03:05.414Z,23.55
2022-10-31T15:05:54.508Z,26.27
2022-10-31T15:08:44.756Z,23.13
2022-10-31T15:11:38.445Z,22.20
2022-10-31T15:14:30.574Z,21.65
2022-10-31T15:17:17.134Z,25.13
2022-10-31T15:20:04.874Z,23.63
2022-10-31T15:22:50.764Z,22.95
2022-10-31T15:25:37.067Z,21.10
2022-10-31T15:28:24.612Z,26.85
2022-10-31T15:31:19.250Z,22.20
2022-10-31T15:34:12.832Z,21.85
2022-10-31T15:36:58.387Z,23.83
2022-10-31T15:39:45.292Z,21.80
2022-10-31T15:42:40.256Z,23.55
2022-10-31T15:45:27.977Z,23.52
2022-10-31T15:48:19.119Z,23.45
2022-10-31T15:51:05.838Z,20.75
2022-10-31T15:53:53.683Z,22.35
2022-10-31T15:56:38.966Z,21.83
2022-10-31T15:59:28.232Z,22.33
2022-10-31T16:02:15.450Z,24.08
2022-10-31T16:05:02.158Z,24.92
2022-10-31T16:07:52.319Z,22.02
2022-10-31T16:10:37.751Z,23.75
2022-10-31T16:13:28.986Z,22.27
2022-10-31T16:19:35.094Z,18.85
2022-10-31T16:22:24.731Z,27.65
2022-10-31T16:25:20.703Z,23.33
2022-10-31T16:28:19.135Z,21.50
2022-10-31T16:31:14.842Z,22.23
2022-10-31T16:34:06.067Z,24.52
2022-10-31T16:36:51.435Z,22.33
2022-10-31T16:39:36.558Z,20.75
2022-10-31T16:42:21.988Z,22.05
2022-10-31T16:45:08.583Z,22.35
2022-10-31T16:47:54.637Z,26.42
2022-10-31T16:50:40.162Z,22.52
2022-10-31T16:53:25.783Z,23.10
2022-10-31T16:56:19.048Z,28.35
2022-10-31T16:59:09.879Z,28.90
2022-10-31T17:01:59.275Z,25.27
2022-10-31T17:04:44.868Z,34.38
2022-10-31T17:07:30.038Z,32.53
2022-10-31T17:10:16.207Z,38.80
2022-10-31T17:13:03.933Z,35.17
2022-10-31T17:15:53.510Z,32.22
2022-10-31T17:18:39.007Z,30.92
2022-10-31T17:21:26.274Z,33.72
2022-10-31T17:24:16.287Z,38.63
2022-10-31T17:27:01.744Z,37.70
2022-10-31T17:29:47.415Z,34.45
2022-10-31T17:32:32.736Z,35.13
2022-10-31T17:35:19.570Z,31.70
2022-10-31T17:38:05.123Z,26.58
2022-10-31T17:40:50.738Z,30.10
2022-10-31T17:43:36.204Z,31.35
2022-10-31T17:46:21.803Z,30.73
2022-10-31T17:49:08.969Z,31.30
2022-10-31T17:51:54.091Z,27.42
2022-10-31T17:54:39.637Z,29.50
2022-10-31T17:57:25.069Z,29.98
2022-10-31T18:00:14.802Z,26.63
2022-10-31T18:03:01.679Z,30.88
2022-10-31T18:05:58.739Z,31.23
2022-10-31T18:08:44.864Z,30.38
2022-10-31T18:11:30.864Z,28.60
2022-10-31T18:14:16.459Z,32.83
2022-10-31T18:17:01.957Z,28.13
2022-10-31T18:19:47.623Z,29.77
2022-10-31T18:22:33.140Z,30.92
2022-10-31T18:25:18.991Z,28.73
2022-10-31T18:28:05.319Z,29.20
2022-10-31T18:30:51.061Z,31.35
2022-10-31T18:33:37.704Z,27.58
2022-10-31T18:36:24.078Z,32.38
2022-10-31T18:39:09.606Z,37.97
2022-10-31T18:41:55.192Z,34.13
2022-10-31T18:44:40.665Z,32.00
2022-10-31T18:47:26.284Z,30.38
2022-10-31T18:50:12.687Z,37.72
2022-10-31T18:52:58.119Z,31.02
2022-10-31T18:55:47.228Z,29.10
2022-10-31T18:58:35.827Z,31.48
2022-10-31T19:01:22.480Z,33.67
2022-10-31T19:04:10.682Z,36.50
2022-10-31T19:06:56.262Z,36.17
2022-10-31T19:09:41.538Z,36.25
2022-10-31T19:12:26.982Z,33.20
2022-10-31T19:15:12.538Z,34.78
2022-10-31T19:17:57.798Z,29.77
2022-10-31T19:20:43.155Z,33.65
2022-10-31T19:23:28.540Z,32.75
2022-10-31T19:26:14.443Z,37.20
2022-10-31T19:28:59.762Z,29.85
2022-10-31T19:31:45.254Z,34.72
2022-10-31T19:34:30.807Z,32.63
2022-10-31T19:37:16.490Z,29.33
2022-10-31T19:40:02.283Z,30.90
2022-10-31T19:42:48.023Z,27.25
2022-10-31T19:45:33.351Z,27.65
2022-10-31T19:48:19.005Z,27.38
2022-10-31T19:51:10.126Z,29.55
2022-10-31T19:53:55.510Z,27.45
2022-10-31T19:56:40.617Z,27.85
2022-10-31T19:59:26.273Z,29.33
2022-10-31T20:02:19.590Z,25.92
2022-10-31T20:05:05.478Z,27.10
2022-10-31T20:07:50.963Z,24.70
2022-10-31T20:10:36.732Z,23.58
2022-10-31T20:13:23.965Z,21.33
2022-10-31T20:16:11.415Z,19.05
2022-10-31T20:18:56.851Z,16.65
2022-10-31T20:21:42.853Z,18.95
2022-10-31T20:24:31.248Z,17.60
2022-10-31T20:27:16.759Z,16.80
2022-10-31T20:30:02.183Z,15.60
2022-10-31T20:32:50.141Z,16.85
2022-10-31T20:35:40.752Z,16.33
2022-10-31T20:38:26.322Z,17.75
2022-10-31T20:41:11.904Z,14.70
2022-10-31T20:43:58.280Z,15.10
2022-10-31T20:46:43.445Z,14.98
2022-10-31T20:49:30.223Z,14.45
2022-10-31T20:52:15.418Z,13.50
2022-10-31T20:55:01.090Z,11.77
2022-10-31T20:57:46.553Z,13.52
2022-10-31T21:00:31.907Z,13.32
2022-10-31T21:03:17.184Z,13.25
2022-10-31T21:06:04.067Z,11.90
2022-10-31T21:08:50.073Z,12.82
2022-10-31T21:11:35.379Z,9.68
2022-10-31T21:14:20.668Z,14.70
2022-10-31T21:17:06.879Z,11.57
2022-10-31T21:19:52.196Z,12.07
2022-10-31T21:22:38.174Z,9.18
2022-10-31T21:25:23.445Z,10.90
2022-10-31T21:28:10.707Z,8.85
2022-10-31T21:30:55.974Z,11.40
2022-10-31T21:33:42.175Z,13.68
2022-10-31T21:36:27.217Z,10.93
2022-10-31T21:39:12.796Z,11.57
2022-10-31T21:41:58.038Z,8.52
2022-10-31T21:44:43.579Z,9.60
2022-10-31T21:47:28.807Z,11.45
2022-10-31T21:50:14.921Z,9.95
2022-10-31T21:53:20.199Z,11.05
2022-10-31T21:56:05.701Z,10.45
2022-10-31T21:58:52.073Z,10.48
2022-10-31T22:01:37.915Z,11.38
2022-10-31T22:04:23.525Z,10.82
2022-10-31T22:07:09.023Z,10.68
2022-10-31T22:09:54.342Z,10.55
2022-10-31T22:12:39.701Z,13.48
2022-10-31T22:15:24.994Z,9.30
2022-10-31T22:18:10.407Z,10.73
2022-10-31T22:21:01.947Z,7.10
2022-10-31T22:23:54.338Z,9.93
2022-10-31T22:26:40.078Z,8.98
2022-10-31T22:29:27.789Z,9.90
2022-10-31T22:32:13.204Z,10.15
2022-10-31T22:34:58.745Z,8.60
2022-10-31T22:37:44.119Z,9.02
2022-10-31T22:40:29.885Z,9.95
2022-10-31T22:43:15.187Z,11.95
2022-10-31T22:46:03.782Z,9.32
2022-10-31T22:48:52.186Z,11.55
2022-10-31T22:51:39.277Z,10.52
2022-10-31T22:54:24.558Z,10.82
2022-10-31T22:57:10.353Z,11.55
2022-10-31T22:59:55.639Z,6.43
2022-10-31T23:02:41.095Z,9.32
2022-10-31T23:05:26.438Z,10.63
2022-10-31T23:08:11.792Z,8.95
2022-10-31T23:10:57.262Z,8.90
2022-10-31T23:14:01.612Z,10.07
2022-10-31T23:16:52.176Z,8.77
2022-10-31T23:19:37.799Z,8.85
2022-10-31T23:22:23.217Z,7.57
2022-10-31T23:25:08.954Z,8.38
2022-10-31T23:27:54.453Z,8.07
2022-10-31T23:30:39.527Z,14.52
2022-10-31T23:33:30.543Z,10.50
2022-10-31T23:36:17.220Z,9.52
2022-10-31T23:39:02.682Z,8.73
2022-10-31T23:41:48.463Z,8.48
2022-10-31T23:44:33.743Z,12.23
2022-10-31T23:47:19.815Z,9.10
2022-10-31T23:50:05.494Z,10.48
2022-10-31T23:52:51.186Z,8.50
2022-10-31T23:55:37.528Z,10.93
2022-10-31T23:58:23.178Z,11.77
